Time;durP1;ratioP1;P1;durP2;ratioP2;P2;SDS_P1;SDS_P2;PMS_P1;PMS_P2;Temp;Humidity;BMP_temperature;BMP_pressure;BME280_temperature;BME280_humidity;BME280_pressure;Samples;Min_cycle;Max_cycle;Signal;HPM_P1;HPM_P2
2023/12/06 00:01:20;;;;;;;0.68;0.20;;;;;;;3.99;100.00;100019.38;5060519;28;20406;-69
2023/12/06 00:03:46;;;;;;;0.98;0.15;;;;;;;4.05;100.00;100021.50;5056444;28;20024;-69
2023/12/06 00:06:11;;;;;;;0.50;0.20;;;;;;;4.12;100.00;100024.47;5065987;28;20493;-69
2023/12/06 00:08:37;;;;;;;0.60;0.30;;;;;;;4.05;100.00;100026.66;5058680;28;20028;-69
2023/12/06 00:11:02;;;;;;;1.00;0.32;;;;;;;3.86;100.00;100029.78;5053966;28;20052;-69
2023/12/06 00:13:28;;;;;;;0.40;0.20;;;;;;;3.64;100.00;100037.44;5043300;28;20529;-69
2023/12/06 00:15:53;;;;;;;0.50;0.10;;;;;;;3.53;100.00;100034.81;5059689;28;20070;-69
2023/12/06 00:18:19;;;;;;;0.60;0.20;;;;;;;3.44;100.00;100031.13;5059058;28;20508;-69
2023/12/06 00:20:45;;;;;;;0.52;0.10;;;;;;;3.37;100.00;100035.06;5059375;28;20040;-69
2023/12/06 00:23:10;;;;;;;1.33;0.20;;;;;;;3.31;100.00;100036.31;5063113;28;20033;-69
2023/12/06 00:25:35;;;;;;;0.82;0.13;;;;;;;3.24;100.00;100037.72;5058689;28;20036;-69
2023/12/06 00:28:04;;;;;;;1.05;0.10;;;;;;;3.18;100.00;100037.31;5064969;28;20107;-69
2023/12/06 00:30:30;;;;;;;0.40;0.10;;;;;;;3.12;100.00;100046.28;5064423;28;20082;-69
2023/12/06 00:32:55;;;;;;;0.22;0.10;;;;;;;3.10;100.00;100042.19;5067529;28;20048;-69
2023/12/06 00:35:20;;;;;;;1.20;0.22;;;;;;;3.08;100.00;100056.91;5066648;28;20041;-69
2023/12/06 00:37:46;;;;;;;2.15;0.40;;;;;;;3.07;100.00;100063.81;5059083;28;20396;-69
2023/12/06 00:40:12;;;;;;;0.20;0.10;;;;;;;3.04;100.00;100069.16;5060709;28;20025;-69
2023/12/06 00:42:37;;;;;;;0.82;0.30;;;;;;;3.04;100.00;100070.91;5065520;28;20402;-69
2023/12/06 00:45:03;;;;;;;0.68;0.20;;;;;;;3.04;100.00;100078.63;5067929;28;20020;-68
2023/12/06 00:47:28;;;;;;;0.60;0.20;;;;;;;3.02;100.00;100077.91;5068338;28;20044;-68
2023/12/06 00:49:54;;;;;;;0.65;0.10;;;;;;;3.02;100.00;100076.16;5051480;28;20024;-69
2023/12/06 00:52:19;;;;;;;0.38;0.10;;;;;;;3.02;100.00;100072.78;5066651;28;20087;-68
2023/12/06 00:54:47;;;;;;;0.40;0.20;;;;;;;3.04;100.00;100074.31;5067400;28;20032;-69
2023/12/06 00:57:13;;;;;;;0.40;0.20;;;;;;;3.14;100.00;100082.22;5066647;28;20029;-68
2023/12/06 00:59:38;;;;;;;0.93;0.20;;;;;;;3.15;100.00;100082.13;5062397;28;20033;-68
2023/12/06 01:02:04;;;;;;;0.75;0.20;;;;;;;3.08;100.00;100080.06;5060883;28;20029;-69
2023/12/06 01:04:29;;;;;;;0.93;0.20;;;;;;;3.01;100.00;100079.66;5061725;28;20491;-68
2023/12/06 01:06:55;;;;;;;1.13;0.28;;;;;;;2.91;100.00;100084.63;5066754;28;20195;-68
2023/12/06 01:09:20;;;;;;;0.98;0.30;;;;;;;2.88;100.00;100089.97;5064247;28;20493;-68
2023/12/06 01:11:45;;;;;;;0.47;0.10;;;;;;;2.89;100.00;100107.06;5066358;28;20024;-69
2023/12/06 01:14:11;;;;;;;0.80;0.30;;;;;;;2.86;100.00;100107.25;5065879;28;20144;-69
2023/12/06 01:16:36;;;;;;;0.50;0.20;;;;;;;2.86;100.00;100103.88;5064844;28;20040;-68
2023/12/06 01:19:02;;;;;;;0.93;0.13;;;;;;;2.89;100.00;100119.09;5060901;28;20049;-69
2023/12/06 01:21:28;;;;;;;7.47;0.40;;;;;;;2.89;100.00;100114.78;5057883;28;20037;-68
2023/12/06 01:23:54;;;;;;;0.80;0.20;;;;;;;2.89;100.00;100122.50;5061406;28;20024;-69
2023/12/06 01:26:19;;;;;;;0.88;0.20;;;;;;;2.93;100.00;100117.97;5041125;28;20040;-68
2023/12/06 01:28:45;;;;;;;0.73;0.28;;;;;;;2.93;100.00;100111.06;5062458;28;20025;-69
2023/12/06 01:31:11;;;;;;;0.38;0.10;;;;;;;2.93;100.00;100113.66;5056569;28;20033;-68
2023/12/06 01:33:36;;;;;;;1.08;0.22;;;;;;;2.93;100.00;100110.25;5069181;28;20864;-69
2023/12/06 01:36:02;;;;;;;1.45;0.20;;;;;;;2.92;100.00;100112.00;5062155;28;20771;-69
2023/12/06 01:38:27;;;;;;;2.90;0.30;;;;;;;2.85;100.00;100117.66;5060453;28;20035;-68
2023/12/06 01:40:53;;;;;;;0.93;0.22;;;;;;;2.84;100.00;100121.16;5060913;28;20387;-68
2023/12/06 01:43:18;;;;;;;0.63;0.20;;;;;;;2.79;100.00;100116.34;5069188;28;20397;-68
2023/12/06 01:45:44;;;;;;;1.60;0.22;;;;;;;2.73;100.00;100109.03;5059410;28;20024;-68
2023/12/06 01:48:10;;;;;;;0.82;0.22;;;;;;;2.65;100.00;100111.31;5064136;28;20036;-69
2023/12/06 01:50:37;;;;;;;1.33;0.30;;;;;;;2.55;100.00;100095.66;5064469;28;20509;-69
2023/12/06 01:53:04;;;;;;;1.02;0.28;;;;;;;2.51;100.00;100096.78;5066024;28;20521;-69
2023/12/06 01:55:30;;;;;;;1.35;0.43;;;;;;;2.49;100.00;100092.66;5067002;28;20024;-68
2023/12/06 01:57:57;;;;;;;1.23;0.28;;;;;;;2.44;100.00;100090.41;5063681;28;20551;-68
2023/12/06 02:00:24;;;;;;;1.95;0.43;;;;;;;2.37;100.00;100088.34;5059220;28;20123;-69
2023/12/06 02:02:50;;;;;;;0.70;0.32;;;;;;;2.33;100.00;100080.84;5060869;28;20044;-69
2023/12/06 02:05:16;;;;;;;1.60;0.43;;;;;;;2.31;100.00;100092.97;5061963;28;20525;-68
2023/12/06 02:07:42;;;;;;;1.60;0.40;;;;;;;2.29;100.00;100089.69;5062773;28;20028;-69
2023/12/06 02:10:09;;;;;;;2.25;0.30;;;;;;;2.22;100.00;100090.19;5059548;28;20025;-69
2023/12/06 02:12:35;;;;;;;1.40;0.47;;;;;;;2.17;100.00;100090.50;5060107;28;20041;-69
2023/12/06 02:15:01;;;;;;;1.83;0.30;;;;;;;2.14;100.00;100088.13;5062939;28;20046;-68
2023/12/06 02:17:28;;;;;;;1.70;0.45;;;;;;;2.13;100.00;100096.75;5045911;28;20041;-68
2023/12/06 02:19:54;;;;;;;1.55;0.35;;;;;;;2.11;100.00;100096.03;5061021;28;20028;-69
2023/12/06 02:22:21;;;;;;;2.83;0.50;;;;;;;2.10;100.00;100096.13;5067086;28;20036;-68
2023/12/06 02:24:56;;;;;;;2.08;0.30;;;;;;;2.17;100.00;100089.66;5065509;28;20042;-68
2023/12/06 02:27:21;;;;;;;3.10;0.60;;;;;;;2.11;100.00;100087.50;5062214;28;20029;-68
2023/12/06 02:29:47;;;;;;;2.13;0.40;;;;;;;2.08;100.00;100083.38;5063782;28;20470;-69
2023/12/06 02:32:12;;;;;;;1.02;0.30;;;;;;;2.04;100.00;100086.22;5064927;28;20056;-69
2023/12/06 02:34:40;;;;;;;2.35;0.52;;;;;;;2.02;100.00;100093.22;5061274;28;20478;-69
2023/12/06 02:37:08;;;;;;;0.77;0.40;;;;;;;1.97;100.00;100089.19;5059797;28;20029;-69
2023/12/06 02:39:42;;;;;;;0.75;0.30;;;;;;;1.94;100.00;100088.56;5061539;28;20066;-70
2023/12/06 02:42:08;;;;;;;1.02;0.40;;;;;;;1.91;100.00;100075.91;5063283;28;20037;-68
2023/12/06 02:44:34;;;;;;;0.47;0.22;;;;;;;1.89;100.00;100086.28;5063710;28;20036;-68
2023/12/06 02:47:00;;;;;;;0.77;0.40;;;;;;;1.88;100.00;100092.38;5066566;28;20036;-69
2023/12/06 02:49:25;;;;;;;1.38;0.40;;;;;;;1.82;100.00;100092.78;5058083;28;20025;-68
2023/12/06 02:51:51;;;;;;;1.33;0.30;;;;;;;1.82;100.00;100091.94;5066252;28;20186;-68
2023/12/06 02:54:16;;;;;;;1.48;0.40;;;;;;;1.81;100.00;100088.56;5068175;28;20389;-68
2023/12/06 02:56:42;;;;;;;1.35;0.40;;;;;;;1.83;100.00;100089.28;5058438;28;20403;-70
2023/12/06 02:59:07;;;;;;;1.75;0.40;;;;;;;1.84;100.00;100087.53;5061095;28;20025;-69
2023/12/06 03:01:32;;;;;;;2.08;0.40;;;;;;;1.91;100.00;100097.28;5061821;28;20028;-69
2023/12/06 03:03:58;;;;;;;0.85;0.30;;;;;;;1.98;100.00;100096.00;5062008;28;20021;-69
2023/12/06 03:06:23;;;;;;;0.65;0.20;;;;;;;2.02;100.00;100101.75;5065919;28;20226;-68
2023/12/06 03:08:49;;;;;;;1.75;0.40;;;;;;;2.07;100.00;100093.75;5061320;28;20116;-68
2023/12/06 03:11:14;;;;;;;0.98;0.40;;;;;;;2.13;100.00;100086.47;5061903;28;20040;-68
2023/12/06 03:13:40;;;;;;;1.13;0.28;;;;;;;2.17;100.00;100093.06;5054305;28;20048;-68
2023/12/06 03:16:05;;;;;;;1.55;0.30;;;;;;;2.20;100.00;100098.00;5056977;28;20094;-68
2023/12/06 03:18:31;;;;;;;0.68;0.20;;;;;;;2.22;100.00;100100.47;5062573;28;20490;-68
2023/12/06 03:20:57;;;;;;;0.82;0.38;;;;;;;2.20;100.00;100105.72;5044776;28;20033;-68
2023/12/06 03:23:22;;;;;;;1.13;0.25;;;;;;;2.20;100.00;100108.28;5067128;28;20342;-69
2023/12/06 03:25:48;;;;;;;1.73;0.40;;;;;;;2.24;100.00;100109.72;5065071;28;20075;-69
2023/12/06 03:28:13;;;;;;;1.00;0.40;;;;;;;2.28;100.00;100115.50;5061005;28;20115;-69
2023/12/06 03:30:38;;;;;;;1.63;0.30;;;;;;;2.30;100.00;100111.91;5063350;28;20025;-68
2023/12/06 03:33:04;;;;;;;0.40;0.20;;;;;;;2.28;100.00;100108.59;5058888;28;20037;-68
2023/12/06 03:35:29;;;;;;;0.45;0.13;;;;;;;2.27;100.00;100108.72;5061410;28;20052;-68
2023/12/06 03:37:55;;;;;;;2.10;0.38;;;;;;;2.30;100.00;100113.66;5057823;28;20059;-68
2023/12/06 03:40:20;;;;;;;1.38;0.30;;;;;;;2.37;100.00;100114.03;5058687;28;20096;-69
2023/12/06 03:42:46;;;;;;;0.70;0.20;;;;;;;2.36;100.00;100105.53;5062599;28;20512;-68
2023/12/06 03:45:12;;;;;;;0.98;0.20;;;;;;;2.41;100.00;100106.03;5060945;28;20041;-68
2023/12/06 03:47:38;;;;;;;0.80;0.20;;;;;;;2.40;100.00;100103.56;5060109;28;20389;-68
2023/12/06 03:50:05;;;;;;;0.60;0.20;;;;;;;2.37;100.00;100096.03;5062956;28;20697;-68
2023/12/06 03:52:30;;;;;;;0.40;0.15;;;;;;;2.36;100.00;100102.97;5048458;28;20048;-68
2023/12/06 03:54:56;;;;;;;1.08;0.30;;;;;;;2.22;100.00;100098.72;5046807;28;20397;-68
2023/12/06 03:57:21;;;;;;;1.10;0.20;;;;;;;2.27;100.00;100098.44;5063316;28;20032;-69
2023/12/06 03:59:47;;;;;;;1.45;0.40;;;;;;;2.31;100.00;100103.28;5060679;28;20032;-68
2023/12/06 04:02:13;;;;;;;1.05;0.32;;;;;;;2.31;100.00;100105.00;5062056;28;20033;-68
2023/12/06 04:04:39;;;;;;;1.40;0.68;;;;;;;2.31;100.00;100100.69;5060288;28;20558;-69
2023/12/06 04:07:04;;;;;;;1.23;0.30;;;;;;;2.26;100.00;100107.88;5059168;28;20055;-68
2023/12/06 04:09:30;;;;;;;0.88;0.32;;;;;;;2.32;100.00;100093.81;5051031;28;20497;-68
2023/12/06 04:11:55;;;;;;;1.77;0.40;;;;;;;2.33;100.00;100103.16;5065766;28;20028;-68
2023/12/06 04:14:21;;;;;;;1.65;0.30;;;;;;;2.35;100.00;100096.19;5057669;28;20123;-68
2023/12/06 04:16:49;;;;;;;0.98;0.40;;;;;;;2.37;100.00;100096.03;5057803;28;20134;-68
2023/12/06 04:19:15;;;;;;;2.05;0.40;;;;;;;2.37;100.00;100103.75;5065134;28;20032;-68
2023/12/06 04:21:40;;;;;;;1.63;0.35;;;;;;;2.42;100.00;100101.72;5059710;28;20466;-69
2023/12/06 04:24:06;;;;;;;2.72;0.60;;;;;;;2.46;100.00;100098.00;5056220;28;20028;-68
2023/12/06 04:26:31;;;;;;;2.08;0.45;;;;;;;2.45;100.00;100101.50;5059179;28;20097;-69
2023/12/06 04:28:57;;;;;;;1.35;0.40;;;;;;;2.43;100.00;100088.75;5060723;28;20032;-69
2023/12/06 04:31:22;;;;;;;2.05;0.82;;;;;;;2.39;100.00;100095.03;5058833;28;20036;-69
2023/12/06 04:33:47;;;;;;;4.05;1.25;;;;;;;2.37;100.00;100088.34;5059322;28;20093;-68
2023/12/06 04:36:13;;;;;;;3.90;1.65;;;;;;;2.29;100.00;100099.97;5062859;28;20051;-69
2023/12/06 04:38:38;;;;;;;1.63;0.75;;;;;;;2.27;100.00;100104.38;5057766;28;20139;-68
2023/12/06 04:41:04;;;;;;;1.25;0.40;;;;;;;2.32;100.00;100099.78;5060143;28;20060;-69
2023/12/06 04:43:29;;;;;;;2.67;0.40;;;;;;;2.38;100.00;100087.41;5063158;28;20032;-68
2023/12/06 04:45:55;;;;;;;4.43;0.68;;;;;;;2.38;100.00;100095.94;5057909;28;20442;-68
2023/12/06 04:48:21;;;;;;;3.90;0.85;;;;;;;2.36;100.00;100091.84;5044005;28;20029;-68
2023/12/06 04:50:47;;;;;;;2.95;1.00;;;;;;;2.33;100.00;100098.84;5060434;28;20040;-68
2023/12/06 04:53:12;;;;;;;5.88;2.08;;;;;;;2.31;100.00;100095.56;5060828;28;20363;-69
2023/12/06 04:55:38;;;;;;;3.40;0.95;;;;;;;2.31;100.00;100095.56;5057050;28;20029;-69
2023/12/06 04:58:03;;;;;;;5.13;1.80;;;;;;;2.29;100.00;100096.56;5040951;28;20048;-69
2023/12/06 05:00:30;;;;;;;6.38;2.30;;;;;;;2.32;100.00;100098.94;5059137;28;20020;-68
2023/12/06 05:02:55;;;;;;;10.38;2.75;;;;;;;2.32;100.00;100099.78;5057486;28;20040;-69
2023/12/06 05:05:21;;;;;;;9.68;2.15;;;;;;;2.37;100.00;100098.63;5056165;28;20183;-68
2023/12/06 05:07:46;;;;;;;5.90;1.90;;;;;;;2.41;100.00;100115.50;5061538;28;20040;-68
2023/12/06 05:10:12;;;;;;;6.35;2.58;;;;;;;2.42;100.00;100102.53;5052774;28;20052;-68
2023/12/06 05:12:37;;;;;;;10.70;2.03;;;;;;;2.47;100.00;100112.50;5036338;28;20041;-68
2023/12/06 05:15:04;;;;;;;4.80;2.03;;;;;;;2.45;100.00;100111.78;5057284;28;20501;-68
2023/12/06 05:17:29;;;;;;;5.55;1.65;;;;;;;2.42;100.00;100110.25;5057606;28;20382;-69
2023/12/06 05:19:55;;;;;;;4.28;1.45;;;;;;;2.44;100.00;100107.56;5064506;28;20025;-68
2023/12/06 05:22:20;;;;;;;2.50;0.90;;;;;;;2.44;100.00;100110.97;5065668;28;20040;-69
2023/12/06 05:24:46;;;;;;;3.28;1.00;;;;;;;2.40;100.00;100109.53;5064865;28;20111;-69
2023/12/06 05:27:12;;;;;;;1.77;0.80;;;;;;;2.46;100.00;100098.00;5061668;28;20028;-69
2023/12/06 05:29:37;;;;;;;1.38;0.47;;;;;;;2.47;100.00;100109.94;5068584;28;20472;-69
2023/12/06 05:32:03;;;;;;;1.63;0.50;;;;;;;2.46;100.00;100103.97;5071375;28;20025;-69
2023/12/06 05:34:29;;;;;;;3.03;0.93;;;;;;;2.47;100.00;100109.94;5063601;28;20480;-69
2023/12/06 05:36:55;;;;;;;2.40;0.98;;;;;;;2.47;100.00;100107.38;5062101;28;20036;-69
2023/12/06 05:39:21;;;;;;;2.85;1.00;;;;;;;2.46;100.00;100109.13;5062129;28;20467;-69
2023/12/06 05:41:46;;;;;;;1.30;0.52;;;;;;;2.44;100.00;100105.81;5065734;28;20062;-68
2023/12/06 05:44:12;;;;;;;4.00;0.98;;;;;;;2.42;100.00;100096.56;5065340;28;20033;-68
2023/12/06 05:46:37;;;;;;;0.88;0.40;;;;;;;2.40;100.00;100106.13;5063208;28;20042;-68
2023/12/06 05:49:03;;;;;;;2.35;0.55;;;;;;;2.41;100.00;100094.91;5068206;28;20501;-69
2023/12/06 05:51:28;;;;;;;2.58;0.73;;;;;;;2.41;100.00;100102.63;5058714;28;20041;-69
2023/12/06 05:53:53;;;;;;;2.55;0.73;;;;;;;2.43;100.00;100104.19;5064576;28;20098;-69
2023/12/06 05:56:19;;;;;;;1.52;0.50;;;;;;;2.42;100.00;100102.53;5058169;28;20108;-68
2023/12/06 05:58:44;;;;;;;2.25;0.60;;;;;;;2.43;100.00;100103.34;5063651;28;20032;-68
2023/12/06 06:01:10;;;;;;;1.83;0.65;;;;;;;2.49;100.00;100100.38;5061594;28;20033;-69
2023/12/06 06:03:35;;;;;;;2.28;0.60;;;;;;;2.49;100.00;100108.91;5056654;28;20040;-69
2023/12/06 06:06:06;;;;;;;1.55;0.90;;;;;;;2.52;100.00;100102.75;5053949;28;20029;-69
2023/12/06 06:08:32;;;;;;;1.95;0.60;;;;;;;2.50;100.00;100112.31;5063058;28;20044;-69
2023/12/06 06:10:57;;;;;;;1.13;0.60;;;;;;;2.49;100.00;100116.63;5061811;28;20028;-68
2023/12/06 06:13:28;;;;;;;3.08;0.65;;;;;;;2.45;100.00;100111.78;5064771;28;20053;-69
2023/12/06 06:15:54;;;;;;;1.25;0.50;;;;;;;2.41;100.00;100116.31;5060624;28;20044;-69
2023/12/06 06:18:19;;;;;;;2.65;1.05;;;;;;;2.44;100.00;100128.97;5064807;28;20024;-69
2023/12/06 06:20:45;;;;;;;3.83;1.17;;;;;;;2.46;100.00;100128.88;5069192;28;20025;-69
2023/12/06 06:23:11;;;;;;;2.53;1.40;;;;;;;2.46;100.00;100137.41;5065500;28;20029;-68
2023/12/06 06:25:36;;;;;;;4.40;1.52;;;;;;;2.47;100.00;100130.50;5057026;28;20178;-68
2023/12/06 06:28:02;;;;;;;3.85;1.50;;;;;;;2.48;100.00;100134.75;5057069;28;20051;-68
2023/12/06 06:30:28;;;;;;;6.13;1.75;;;;;;;2.47;100.00;100140.81;5059377;28;20040;-68
2023/12/06 06:32:54;;;;;;;1.75;0.73;;;;;;;2.42;100.00;100145.41;5067313;28;20448;-68
2023/12/06 06:35:19;;;;;;;14.05;0.88;;;;;;;2.46;100.00;100141.72;5057848;28;20025;-68
2023/12/06 06:37:46;;;;;;;2.03;0.73;;;;;;;2.49;100.00;100141.53;5051841;28;20029;-68
2023/12/06 06:40:11;;;;;;;4.50;1.50;;;;;;;2.52;100.00;100142.16;5056047;28;20484;-69
2023/12/06 06:42:37;;;;;;;3.80;1.50;;;;;;;2.57;100.00;100134.13;5046291;28;20029;-68
2023/12/06 06:45:05;;;;;;;6.13;1.55;;;;;;;2.58;100.00;100140.94;5069331;28;20103;-68
2023/12/06 06:47:30;;;;;;;6.57;2.00;;;;;;;2.59;100.00;100150.28;5058411;28;20033;-68
2023/12/06 06:49:56;;;;;;;6.28;1.88;;;;;;;2.61;100.00;100143.28;5055833;28;20032;-68
2023/12/06 06:52:21;;;;;;;6.28;1.63;;;;;;;2.60;100.00;100147.63;5045050;28;20485;-69
2023/12/06 06:54:47;;;;;;;5.88;2.33;;;;;;;2.62;100.00;100161.19;5054054;28;20029;-68
2023/12/06 06:57:12;;;;;;;8.88;2.58;;;;;;;2.69;100.00;100156.47;5053579;28;20079;-68
2023/12/06 06:59:38;;;;;;;4.60;2.17;;;;;;;2.72;100.00;100166.56;5052167;28;20425;-68
2023/12/06 07:02:04;;;;;;;8.82;3.92;;;;;;;2.73;100.00;100168.22;5053778;28;20042;-68
2023/12/06 07:04:31;;;;;;;7.90;3.38;;;;;;;2.75;100.00;100163.78;5059176;28;20454;-68
2023/12/06 07:06:56;;;;;;;8.45;3.95;;;;;;;2.85;100.00;100171.69;5058227;28;20748;-69
2023/12/06 07:09:22;;;;;;;6.75;3.58;;;;;;;2.89;100.00;100168.81;5063653;28;20028;-68
2023/12/06 07:11:47;;;;;;;7.00;3.50;;;;;;;2.95;100.00;100178.69;5065105;28;20477;-69
2023/12/06 07:14:13;;;;;;;6.78;3.50;;;;;;;2.96;100.00;100179.53;5064880;28;20101;-68
2023/12/06 07:16:38;;;;;;;5.30;2.97;;;;;;;2.98;100.00;100182.81;5061419;28;20025;-69
2023/12/06 07:19:04;;;;;;;8.43;3.70;;;;;;;3.07;100.00;100186.53;5061309;28;20533;-69
2023/12/06 07:21:29;;;;;;;9.18;3.50;;;;;;;3.11;100.00;100183.66;5062667;28;20081;-68
2023/12/06 07:23:55;;;;;;;10.57;3.85;;;;;;;3.15;100.00;100187.66;5061199;28;20076;-69
2023/12/06 07:26:20;;;;;;;14.52;3.05;;;;;;;3.20;100.00;100206.19;5060922;28;20474;-69
2023/12/06 07:28:46;;;;;;;10.40;2.85;;;;;;;3.23;100.00;100185.41;5056337;28;20032;-68
2023/12/06 07:31:11;;;;;;;10.52;3.75;;;;;;;3.29;100.00;100197.03;5054017;28;20032;-69
2023/12/06 07:33:39;;;;;;;6.20;2.72;;;;;;;3.34;100.00;100198.34;5059789;28;20127;-69
2023/12/06 07:36:06;;;;;;;8.38;3.30;;;;;;;3.37;100.00;100204.22;5056380;28;20108;-69
2023/12/06 07:38:31;;;;;;;3.42;2.03;;;;;;;3.39;100.00;100203.19;5060956;28;20174;-69
2023/12/06 07:40:57;;;;;;;4.40;2.15;;;;;;;3.42;100.00;100208.13;5059398;28;20509;-69
2023/12/06 07:43:23;;;;;;;8.27;2.50;;;;;;;3.46;100.00;100214.72;5062167;28;20037;-69
2023/12/06 07:45:48;;;;;;;10.45;2.47;;;;;;;3.50;100.00;100215.31;5059371;28;20028;-69
2023/12/06 07:48:14;;;;;;;4.25;1.85;;;;;;;3.57;100.00;100212.22;5060473;28;20076;-69
2023/12/06 07:50:40;;;;;;;4.60;1.95;;;;;;;3.60;100.00;100209.44;5065229;28;20033;-68
2023/12/06 07:53:06;;;;;;;3.83;1.30;;;;;;;3.67;100.00;100217.56;5063256;28;20036;-69
2023/12/06 07:55:32;;;;;;;4.75;1.75;;;;;;;3.72;100.00;100222.41;5061100;28;20089;-69
2023/12/06 07:57:58;;;;;;;5.25;1.48;;;;;;;3.74;100.00;100226.53;5059439;28;20051;-69
2023/12/06 08:00:23;;;;;;;4.18;1.40;;;;;;;3.85;100.00;100221.41;5063410;28;20443;-69
2023/12/06 08:02:49;;;;;;;4.38;1.75;;;;;;;3.97;100.00;100230.06;5062274;28;20312;-69
2023/12/06 08:05:16;;;;;;;5.90;1.27;;;;;;;4.07;100.00;100231.06;5061111;28;20044;-69
2023/12/06 08:07:42;;;;;;;5.60;1.75;;;;;;;4.12;100.00;100234.13;5052659;28;21243;-68
2023/12/06 08:10:10;;;;;;;3.60;1.65;;;;;;;4.22;100.00;100234.31;5053844;28;20108;-69
2023/12/06 08:12:37;;;;;;;4.38;1.80;;;;;;;4.32;100.00;100236.09;5053729;28;20098;-69
2023/12/06 08:15:07;;;;;;;4.18;1.80;;;;;;;4.33;100.00;100237.72;5066184;28;20040;-69
2023/12/06 08:17:32;;;;;;;4.72;1.52;;;;;;;4.38;100.00;100236.59;5059034;28;20482;-69
2023/12/06 08:19:58;;;;;;;4.90;1.38;;;;;;;4.45;100.00;100241.19;5060468;28;20037;-69
2023/12/06 08:22:23;;;;;;;2.42;1.02;;;;;;;4.60;100.00;100244.44;5053245;28;20513;-68
2023/12/06 08:24:50;;;;;;;1.85;0.80;;;;;;;4.65;100.00;100245.75;5053092;28;20033;-69
2023/12/06 08:27:17;;;;;;;3.47;1.20;;;;;;;4.76;100.00;100250.09;5052875;28;20174;-69
2023/12/06 08:29:42;;;;;;;3.13;1.25;;;;;;;4.83;100.00;100248.72;5060091;28;20020;-69
2023/12/06 08:32:08;;;;;;;3.80;1.08;;;;;;;4.85;100.00;100251.19;5054985;28;20032;-69
2023/12/06 08:34:33;;;;;;;2.45;0.85;;;;;;;4.91;100.00;100248.97;5064552;28;20028;-69
2023/12/06 08:36:59;;;;;;;1.98;1.10;;;;;;;4.94;100.00;100256.50;5058828;28;20028;-69
2023/12/06 08:39:24;;;;;;;2.97;0.90;;;;;;;4.94;100.00;100256.50;5059930;28;20120;-69
2023/12/06 08:41:49;;;;;;;3.17;1.10;;;;;;;5.02;100.00;100249.94;5055417;28;20186;-68
2023/12/06 08:44:15;;;;;;;5.55;1.95;;;;;;;5.12;100.00;100263.81;5063312;28;20119;-69
2023/12/06 08:46:42;;;;;;;4.68;1.45;;;;;;;5.15;100.00;100268.75;5059448;28;20028;-69
2023/12/06 08:49:07;;;;;;;2.85;1.05;;;;;;;5.21;100.00;100268.28;5056360;28;20613;-69
2023/12/06 08:51:33;;;;;;;3.50;1.55;;;;;;;5.25;100.00;100274.84;5058795;28;20116;-69
2023/12/06 08:53:58;;;;;;;3.08;1.20;;;;;;;5.29;100.00;100278.84;5061699;28;20032;-69
2023/12/06 08:56:24;;;;;;;4.20;1.75;;;;;;;5.28;100.00;100284.97;5059132;28;20037;-69
2023/12/06 08:58:49;;;;;;;7.75;1.33;;;;;;;5.20;100.00;100284.72;5062118;28;20042;-69
2023/12/06 09:01:15;;;;;;;4.18;1.52;;;;;;;5.20;100.00;100284.72;5060411;28;20040;-69
2023/12/06 09:03:40;;;;;;;4.90;1.63;;;;;;;5.26;100.00;100298.00;5059403;28;20032;-69
2023/12/06 09:06:07;;;;;;;7.65;2.40;;;;;;;5.32;100.00;100296.72;5056883;28;20926;-69
2023/12/06 09:08:33;;;;;;;4.38;1.33;;;;;;;5.38;100.00;100298.00;5063050;28;20124;-69
2023/12/06 09:10:58;;;;;;;5.40;1.15;;;;;;;5.42;100.00;100315.75;5062796;28;20474;-69
2023/12/06 09:13:24;;;;;;;1.77;0.60;;;;;;;5.46;100.00;100312.00;5064047;28;20496;-69
2023/12/06 09:15:49;;;;;;;4.72;1.70;;;;;;;5.54;100.00;100304.50;5068254;28;20028;-69
2023/12/06 09:18:15;;;;;;;2.80;1.17;;;;;;;5.60;100.00;100314.38;5072654;28;20056;-69
2023/12/06 09:20:42;;;;;;;2.13;0.68;;;;;;;5.65;100.00;100320.03;5068520;28;20035;-70
2023/12/06 09:23:08;;;;;;;1.95;0.60;;;;;;;5.67;100.00;100331.03;5060188;28;20029;-70
2023/12/06 09:25:33;;;;;;;3.70;1.58;;;;;;;5.74;100.00;100338.34;5061810;28;20447;-70
2023/12/06 09:28:00;;;;;;;1.90;0.70;;;;;;;5.78;100.00;100344.91;5061045;28;20029;-70
2023/12/06 09:30:25;;;;;;;1.75;0.30;;;;;;;5.83;100.00;100342.81;5062887;28;20037;-70
2023/12/06 09:32:50;;;;;;;0.73;0.30;;;;;;;5.87;100.00;100344.22;5063987;28;20436;-70
2023/12/06 09:35:16;;;;;;;2.58;0.68;;;;;;;5.89;100.00;100338.03;5060736;28;20459;-69
2023/12/06 09:37:43;;;;;;;2.58;0.50;;;;;;;5.90;100.00;100342.25;5068245;28;20043;-70
2023/12/06 09:40:09;;;;;;;2.75;0.80;;;;;;;5.94;100.00;100345.44;5049448;28;20107;-69
2023/12/06 09:42:37;;;;;;;1.67;0.63;;;;;;;5.95;100.00;100339.31;5066683;28;20041;-70
2023/12/06 09:45:04;;;;;;;1.98;0.77;;;;;;;5.99;100.00;100344.16;5063433;28;20073;-69
2023/12/06 09:47:30;;;;;;;2.00;0.43;;;;;;;6.04;100.00;100343.78;5058217;28;20042;-69
2023/12/06 09:49:56;;;;;;;0.95;0.40;;;;;;;6.08;100.00;100341.78;5063102;28;20043;-69
2023/12/06 09:52:22;;;;;;;1.40;0.70;;;;;;;6.11;100.00;100342.38;5058931;28;20036;-69
2023/12/06 09:54:49;;;;;;;1.55;0.50;;;;;;;6.13;100.00;100348.25;5064816;28;20085;-70
2023/12/06 09:57:16;;;;;;;1.00;0.30;;;;;;;6.18;100.00;100342.69;5044978;28;20044;-69
2023/12/06 09:59:41;;;;;;;0.90;0.40;;;;;;;6.24;100.00;100342.22;5062194;28;20024;-69
2023/12/06 10:02:07;;;;;;;0.90;0.30;;;;;;;6.35;100.00;100339.63;5064282;28;20162;-70
2023/12/06 10:04:34;;;;;;;1.00;0.30;;;;;;;6.47;100.00;100337.84;5063120;28;20474;-69
2023/12/06 10:07:00;;;;;;;1.35;0.50;;;;;;;6.56;100.00;100334.53;5062505;28;20482;-69
2023/12/06 10:09:26;;;;;;;1.35;0.25;;;;;;;6.58;100.00;100338.66;5055784;28;20037;-69
2023/12/06 10:11:52;;;;;;;0.80;0.22;;;;;;;6.65;100.00;100337.19;5056109;28;20031;-69
2023/12/06 10:14:18;;;;;;;1.00;0.40;;;;;;;6.77;100.00;100337.97;5057355;28;20083;-70
2023/12/06 10:16:48;;;;;;;0.98;0.30;;;;;;;6.90;100.00;100336.06;5067301;28;20037;-69
2023/12/06 10:19:22;;;;;;;4.40;1.05;;;;;;;7.05;100.00;100335.75;5060936;28;20383;-69
2023/12/06 10:21:47;;;;;;;3.03;0.40;;;;;;;7.14;100.00;100332.38;5060246;28;20036;-69
2023/12/06 10:24:13;;;;;;;1.10;0.40;;;;;;;7.11;94.24;100330.06;5062156;28;20044;-70
2023/12/06 10:26:39;;;;;;;1.55;0.55;;;;;;;7.15;91.30;100329.69;5059492;28;20051;-69
2023/12/06 10:29:05;;;;;;;2.55;0.47;;;;;;;7.21;95.25;100323.16;5061808;28;20031;-69
2023/12/06 10:31:42;;;;;;;0.55;0.20;;;;;;;7.23;98.24;100326.47;5061793;28;20033;-69
2023/12/06 10:34:08;;;;;;;0.40;0.10;;;;;;;7.08;91.08;100328.56;5061548;28;20024;-69
2023/12/06 10:36:35;;;;;;;0.43;0.20;;;;;;;7.06;91.66;100324.44;5060336;28;20033;-69
2023/12/06 10:39:04;;;;;;;0.60;0.17;;;;;;;7.12;85.37;100321.31;5055851;28;20150;-70
2023/12/06 10:41:31;;;;;;;0.52;0.10;;;;;;;7.16;88.69;100320.13;5059701;28;20036;-69
2023/12/06 10:43:59;;;;;;;2.30;0.25;;;;;;;7.14;89.80;100315.06;5062938;28;20129;-69
2023/12/06 10:46:26;;;;;;;0.98;0.20;;;;;;;7.11;93.00;100315.31;5061347;28;20037;-69
2023/12/06 10:48:53;;;;;;;0.80;0.20;;;;;;;7.09;95.40;100316.44;5063772;28;20130;-69
2023/12/06 10:51:20;;;;;;;0.88;0.20;;;;;;;7.05;96.68;100310.69;5063827;28;20052;-69
2023/12/06 10:53:47;;;;;;;0.45;0.10;;;;;;;7.01;97.59;100309.28;5060239;28;20027;-69
2023/12/06 10:56:15;;;;;;;0.65;0.15;;;;;;;7.02;97.79;100304.91;5063480;28;20039;-69
2023/12/06 10:58:41;;;;;;;1.38;0.30;;;;;;;7.02;98.81;100297.97;5061490;28;20021;-70
2023/12/06 11:01:08;;;;;;;1.90;0.30;;;;;;;7.00;99.91;100299.88;5062208;28;20047;-69
2023/12/06 11:03:35;;;;;;;0.90;0.17;;;;;;;6.98;99.61;100297.41;5066278;28;20041;-69
2023/12/06 11:06:12;;;;;;;0.73;0.20;;;;;;;7.03;100.00;100298.78;5063159;28;20032;-69
2023/12/06 11:08:44;;;;;;;1.48;0.20;;;;;;;7.02;99.78;100284.19;5064923;28;20070;-70
2023/12/06 11:11:18;;;;;;;0.50;0.10;;;;;;;7.02;99.30;100287.63;5061558;28;20067;-69
2023/12/06 11:13:52;;;;;;;1.40;0.25;;;;;;;7.06;98.90;100288.19;5064159;28;20119;-70
2023/12/06 11:16:49;;;;;;;0.85;0.20;;;;;;;7.08;96.94;100292.28;5053232;28;20513;-69
2023/12/06 11:19:15;;;;;;;0.95;0.10;;;;;;;7.14;95.77;100293.53;5059240;28;20405;-69
2023/12/06 11:21:41;;;;;;;0.40;0.17;;;;;;;7.14;97.67;100288.34;5059261;28;20120;-69